Time;durP1;ratioP1;P1;durP2;ratioP2;P2;SDS_P1;SDS_P2;PMS_P1;PMS_P2;Temp;Humidity;BMP_temperature;BMP_pressure;BME280_temperature;BME280_humidity;BME280_pressure;Samples;Min_cycle;Max_cycle;Signal;HPM_P1;HPM_P2
2022/07/03 00:01:46;;;;;;;1.40;1.30;;;22.60;47.10;;;;;;4936198;29;20646;-59
2022/07/03 00:04:12;;;;;;;1.20;1.10;;;22.60;47.10;;;;;;4935156;29;20194;-56
2022/07/03 00:06:38;;;;;;;1.30;1.20;;;22.60;47.20;;;;;;4933739;29;20733;-57
2022/07/03 00:09:05;;;;;;;1.30;1.20;;;22.60;47.20;;;;;;4936045;29;20301;-55
2022/07/03 00:11:32;;;;;;;1.10;1.10;;;22.60;47.20;;;;;;4930160;29;20191;-56
2022/07/03 00:13:58;;;;;;;1.20;1.10;;;22.60;47.20;;;;;;4938328;29;20425;-55
2022/07/03 00:16:24;;;;;;;1.30;1.20;;;22.60;47.10;;;;;;4938429;29;20550;-59
2022/07/03 00:18:49;;;;;;;1.23;1.13;;;22.60;47.10;;;;;;4938241;29;20182;-59
2022/07/03 00:21:29;;;;;;;1.33;1.23;;;22.60;47.20;;;;;;4933553;29;20842;-56
2022/07/03 00:24:01;;;;;;;2.07;1.20;;;22.60;47.20;;;;;;4915800;29;20186;-56
2022/07/03 00:26:37;;;;;;;1.20;1.10;;;22.60;47.20;;;;;;4931173;29;20444;-57
2022/07/03 00:29:03;;;;;;;1.00;1.00;;;22.60;47.20;;;;;;4936977;29;20660;-60
2022/07/03 00:31:32;;;;;;;1.07;1.07;;;22.60;47.10;;;;;;4934809;29;20439;-55
2022/07/03 00:33:59;;;;;;;1.40;1.30;;;22.70;47.30;;;;;;4936388;29;20851;-55
2022/07/03 00:36:33;;;;;;;0.93;0.93;;;22.60;47.20;;;;;;4932899;29;21157;-58
2022/07/03 00:38:59;;;;;;;1.10;1.10;;;22.70;47.20;;;;;;4934973;29;20425;-55
2022/07/03 00:41:30;;;;;;;1.30;1.20;;;22.60;47.20;;;;;;4937917;29;20479;-56
2022/07/03 00:43:56;;;;;;;1.20;1.10;;;22.60;47.20;;;;;;4935359;29;20209;-56
2022/07/03 00:46:24;;;;;;;1.57;1.23;;;22.60;47.30;;;;;;4938618;29;20455;-58
2022/07/03 00:48:51;;;;;;;1.13;1.07;;;22.60;48.00;;;;;;4937882;29;20464;-57
2022/07/03 00:51:23;;;;;;;1.27;1.17;;;22.60;47.20;;;;;;4939638;29;20756;-55
2022/07/03 00:53:51;;;;;;;1.50;1.40;;;22.60;47.20;;;;;;4933123;29;20437;-56
2022/07/03 00:56:22;;;;;;;1.20;1.10;;;22.60;47.30;;;;;;4935561;29;20476;-56
2022/07/03 00:58:49;;;;;;;1.50;1.40;;;22.60;47.30;;;;;;4935800;29;20422;-56
2022/07/03 01:01:18;;;;;;;1.33;1.23;;;22.60;47.30;;;;;;4940788;29;20498;-56
2022/07/03 01:03:45;;;;;;;1.40;1.30;;;22.60;47.30;;;;;;4938328;29;20884;-57
2022/07/03 01:06:14;;;;;;;1.00;1.00;;;22.60;47.30;;;;;;4942161;29;20452;-56
2022/07/03 01:08:51;;;;;;;1.33;1.23;;;22.60;47.30;;;;;;4940088;29;20551;-55
2022/07/03 01:11:27;;;;;;;1.47;1.37;;;22.60;48.10;;;;;;4943302;29;20999;-55
2022/07/03 01:14:11;;;;;;;1.30;1.20;;;22.60;47.30;;;;;;4937294;29;21029;-57
2022/07/03 01:16:44;;;;;;;1.13;1.03;;;22.60;47.40;;;;;;4940100;29;20520;-56
2022/07/03 01:19:32;;;;;;;1.40;1.30;;;22.60;47.30;;;;;;4939228;29;20471;-55
2022/07/03 01:22:25;;;;;;;1.20;1.10;;;22.60;47.30;;;;;;4934654;29;20432;-60
2022/07/03 01:24:57;;;;;;;1.40;1.30;;;22.60;47.40;;;;;;4938441;29;20532;-58
2022/07/03 01:27:45;;;;;;;1.30;1.20;;;22.60;47.40;;;;;;4937476;29;20459;-58
2022/07/03 01:30:11;;;;;;;1.33;1.23;;;22.60;47.40;;;;;;4912255;29;20856;-57
2022/07/03 01:32:56;;;;;;;1.40;1.30;;;22.60;47.50;;;;;;4913096;29;20500;-56
2022/07/03 01:35:27;;;;;;;1.37;1.27;;;22.60;47.40;;;;;;4937161;29;21002;-56
2022/07/03 01:37:54;;;;;;;1.30;1.20;;;22.60;47.40;;;;;;4939093;29;20519;-56
2022/07/03 01:40:23;;;;;;;1.57;1.47;;;22.60;47.40;;;;;;4938104;29;20451;-61
2022/07/03 01:42:48;;;;;;;1.30;1.20;;;22.60;47.50;;;;;;4938808;29;20559;-57
2022/07/03 01:45:15;;;;;;;1.30;1.20;;;22.60;47.50;;;;;;4938063;29;20528;-56
2022/07/03 01:47:45;;;;;;;1.37;1.27;;;22.60;47.50;;;;;;4939440;29;20273;-59
2022/07/03 01:50:13;;;;;;;1.33;1.23;;;22.60;47.50;;;;;;4941797;29;20887;-57
2022/07/03 01:52:41;;;;;;;1.30;1.20;;;22.60;47.40;;;;;;4939104;29;20801;-55
2022/07/03 01:55:09;;;;;;;1.37;1.27;;;22.60;47.40;;;;;;4936719;29;20432;-56
2022/07/03 01:57:43;;;;;;;1.33;1.23;;;22.60;47.50;;;;;;4941601;29;20433;-55
2022/07/03 02:00:10;;;;;;;1.33;1.23;;;22.60;47.40;;;;;;4936678;29;21001;-55
2022/07/03 02:02:43;;;;;;;1.27;1.20;;;22.60;47.50;;;;;;4936221;29;20471;-57
2022/07/03 02:05:30;;;;;;;1.10;1.00;;;22.60;48.20;;;;;;4935929;29;20444;-56
2022/07/03 02:08:29;;;;;;;1.30;1.20;;;22.60;47.40;;;;;;4936223;29;20571;-57
2022/07/03 02:11:14;;;;;;;1.47;1.37;;;22.70;47.50;;;;;;4934409;29;20441;-63
2022/07/03 02:13:59;;;;;;;1.40;1.30;;;22.60;47.50;;;;;;4937936;29;20433;-55
2022/07/03 02:16:26;;;;;;;1.40;1.30;;;22.60;47.50;;;;;;4938659;29;20520;-59
2022/07/03 02:19:04;;;;;;;1.60;1.50;;;22.60;47.50;;;;;;4934994;29;20937;-55
2022/07/03 02:21:30;;;;;;;1.23;1.13;;;22.60;47.50;;;;;;4939889;29;20432;-56
2022/07/03 02:24:25;;;;;;;1.27;1.17;;;22.60;47.50;;;;;;4936590;29;20520;-56
2022/07/03 02:27:02;;;;;;;1.23;1.13;;;22.60;47.50;;;;;;4935423;29;20432;-57
2022/07/03 02:29:40;;;;;;;1.13;1.10;;;22.60;47.50;;;;;;4935926;29;20432;-58
2022/07/03 02:32:12;;;;;;;1.20;1.10;;;22.60;47.50;;;;;;4941510;29;20435;-57
2022/07/03 02:34:42;;;;;;;1.17;1.10;;;22.60;47.50;;;;;;4934286;29;20437;-56
2022/07/03 02:37:14;;;;;;;1.33;1.23;;;22.60;47.50;;;;;;4936871;29;20452;-57
2022/07/03 02:39:51;;;;;;;1.50;1.40;;;22.60;47.50;;;;;;4924562;29;20928;-55
2022/07/03 02:42:30;;;;;;;1.30;1.20;;;22.60;47.50;;;;;;4934677;29;20987;-56
2022/07/03 02:45:01;;;;;;;1.20;1.10;;;22.60;47.60;;;;;;4939768;29;20483;-57
2022/07/03 02:47:33;;;;;;;1.30;1.20;;;22.60;47.50;;;;;;4919796;29;20465;-60
2022/07/03 02:50:10;;;;;;;1.30;1.20;;;22.60;47.50;;;;;;4935786;29;20441;-55
2022/07/03 02:52:42;;;;;;;1.13;1.10;;;22.60;47.60;;;;;;4931418;29;20449;-57
2022/07/03 02:55:39;;;;;;;1.27;1.17;;;22.60;47.50;;;;;;4938472;29;20500;-55
2022/07/03 02:58:26;;;;;;;1.20;1.10;;;22.60;47.60;;;;;;4934552;29;20868;-55
2022/07/03 03:01:15;;;;;;;1.37;1.27;;;22.60;47.60;;;;;;4935899;29;20433;-57
2022/07/03 03:03:50;;;;;;;1.13;1.10;;;22.60;47.60;;;;;;4935970;29;20430;-57
2022/07/03 03:06:20;;;;;;;1.10;1.10;;;22.60;47.60;;;;;;4935310;29;20424;-58
2022/07/03 03:08:52;;;;;;;1.30;1.20;;;22.60;47.60;;;;;;4936690;29;20471;-57
2022/07/03 03:11:28;;;;;;;1.40;1.30;;;22.60;47.50;;;;;;4930921;29;20441;-58
2022/07/03 03:13:56;;;;;;;1.10;1.00;;;22.60;47.60;;;;;;4938714;29;20476;-56
2022/07/03 03:16:22;;;;;;;1.47;1.37;;;22.60;47.60;;;;;;4921413;29;20436;-62
2022/07/03 03:18:48;;;;;;;1.20;1.10;;;22.60;47.50;;;;;;4938968;29;20464;-56
2022/07/03 03:21:17;;;;;;;1.30;1.20;;;22.60;47.60;;;;;;4937759;29;20179;-55
2022/07/03 03:23:51;;;;;;;1.40;1.30;;;22.60;47.60;;;;;;4941945;29;20190;-55
2022/07/03 03:26:18;;;;;;;1.23;1.13;;;22.60;47.60;;;;;;4934427;29;20429;-56
2022/07/03 03:28:44;;;;;;;1.20;1.10;;;22.60;47.60;;;;;;4936298;29;20480;-56
2022/07/03 03:31:11;;;;;;;1.13;1.03;;;22.60;47.60;;;;;;4936365;29;20909;-56
2022/07/03 03:33:40;;;;;;;1.00;1.00;;;22.60;47.60;;;;;;4937872;29;20448;-57
2022/07/03 03:36:08;;;;;;;1.30;1.20;;;22.60;47.60;;;;;;4934074;29;20442;-58
2022/07/03 03:38:34;;;;;;;1.30;1.20;;;22.60;47.50;;;;;;4936651;29;20429;-57
2022/07/03 03:41:01;;;;;;;1.20;1.10;;;22.70;47.70;;;;;;4934461;29;20481;-61
2022/07/03 03:43:27;;;;;;;1.20;1.10;;;22.60;47.60;;;;;;4939769;29;20429;-57
2022/07/03 03:45:52;;;;;;;1.33;1.23;;;22.60;47.60;;;;;;4937900;29;21298;-56
2022/07/03 03:48:18;;;;;;;1.00;1.00;;;22.70;47.70;;;;;;4935652;29;20222;-55
2022/07/03 03:50:44;;;;;;;1.50;1.40;;;22.60;47.60;;;;;;4938169;29;20230;-58
2022/07/03 03:53:11;;;;;;;1.20;1.10;;;22.70;47.70;;;;;;4934838;29;20246;-55
2022/07/03 03:55:37;;;;;;;1.27;1.17;;;22.60;47.60;;;;;;4938402;29;20185;-56
2022/07/03 03:58:04;;;;;;;1.20;1.10;;;22.60;47.60;;;;;;4918943;29;20447;-55
2022/07/03 04:00:30;;;;;;;1.20;1.10;;;22.60;47.60;;;;;;4938473;29;20290;-56
2022/07/03 04:02:55;;;;;;;1.30;1.20;;;22.70;47.60;;;;;;4933296;29;20482;-59
2022/07/03 04:05:21;;;;;;;1.00;1.00;;;22.70;47.60;;;;;;4936102;29;20440;-57
2022/07/03 04:07:46;;;;;;;1.00;1.00;;;22.70;47.60;;;;;;4936764;29;20225;-55
2022/07/03 04:10:12;;;;;;;1.10;1.10;;;22.70;47.70;;;;;;4934339;29;20186;-60
2022/07/03 04:12:38;;;;;;;1.30;1.20;;;22.60;47.60;;;;;;4936346;29;20183;-56
2022/07/03 04:15:04;;;;;;;1.23;1.13;;;22.60;47.60;;;;;;4936017;29;20704;-57
2022/07/03 04:17:30;;;;;;;1.17;1.10;;;22.60;47.60;;;;;;4938433;29;20189;-56
2022/07/03 04:19:55;;;;;;;1.30;1.20;;;22.70;47.60;;;;;;4935002;29;20437;-60
2022/07/03 04:22:21;;;;;;;1.30;1.20;;;22.60;47.70;;;;;;4936830;29;20191;-58
2022/07/03 04:24:46;;;;;;;1.20;1.13;;;22.60;47.60;;;;;;4937195;29;20923;-60
2022/07/03 04:27:12;;;;;;;1.40;1.30;;;22.70;47.70;;;;;;4933517;29;20297;-57
2022/07/03 04:29:38;;;;;;;1.20;1.10;;;22.60;47.60;;;;;;4937983;29;20254;-58
2022/07/03 04:32:04;;;;;;;1.17;1.10;;;22.60;47.60;;;;;;4936586;29;20187;-55
2022/07/03 04:34:29;;;;;;;1.10;1.10;;;22.70;47.70;;;;;;4937398;29;20272;-58
2022/07/03 04:36:55;;;;;;;1.33;1.23;;;22.60;47.70;;;;;;4936145;29;20552;-59
2022/07/03 04:39:20;;;;;;;1.00;1.00;;;22.60;47.60;;;;;;4932806;29;20674;-58
2022/07/03 04:41:46;;;;;;;1.20;1.10;;;22.60;47.60;;;;;;4935578;29;20907;-56
2022/07/03 04:44:11;;;;;;;1.20;1.10;;;22.60;47.70;;;;;;4932297;29;20195;-55
2022/07/03 04:46:37;;;;;;;1.27;1.17;;;22.70;47.80;;;;;;4934352;29;20234;-57
2022/07/03 04:49:03;;;;;;;1.73;1.23;;;22.60;47.70;;;;;;4935035;29;20207;-56
2022/07/03 04:51:28;;;;;;;1.00;1.00;;;22.60;47.70;;;;;;4933135;29;20538;-56
2022/07/03 04:53:54;;;;;;;1.20;1.10;;;22.60;47.60;;;;;;4935943;29;20186;-58
2022/07/03 04:56:19;;;;;;;1.23;1.13;;;22.60;47.70;;;;;;4916982;29;20190;-56
2022/07/03 04:58:45;;;;;;;1.10;1.10;;;22.60;47.60;;;;;;4935689;29;20187;-57
2022/07/03 05:01:11;;;;;;;1.20;1.10;;;22.60;47.60;;;;;;4934520;29;20189;-58
2022/07/03 05:03:37;;;;;;;1.20;1.10;;;22.60;47.70;;;;;;4936762;29;20179;-56
2022/07/03 05:06:02;;;;;;;1.10;1.10;;;22.60;47.70;;;;;;4936410;29;20865;-55
2022/07/03 05:08:28;;;;;;;1.33;1.23;;;22.60;47.60;;;;;;4936189;29;20210;-57
2022/07/03 05:10:53;;;;;;;1.37;1.27;;;22.60;47.70;;;;;;4936378;29;20183;-57
2022/07/03 05:13:19;;;;;;;1.17;1.10;;;22.70;47.70;;;;;;4934612;29;20185;-57
2022/07/03 05:15:45;;;;;;;1.07;1.00;;;22.70;47.70;;;;;;4935941;29;20242;-55
2022/07/03 05:18:10;;;;;;;1.13;1.07;;;22.60;47.70;;;;;;4935291;29;20190;-55
2022/07/03 05:20:36;;;;;;;1.50;1.40;;;22.60;47.70;;;;;;4936804;29;20191;-56
2022/07/03 05:23:05;;;;;;;1.30;1.20;;;22.70;47.70;;;;;;4936633;29;20210;-55
2022/07/03 05:25:31;;;;;;;1.40;1.30;;;22.60;47.70;;;;;;4935100;29;20202;-55
2022/07/03 05:27:58;;;;;;;1.40;1.30;;;22.70;47.80;;;;;;4936875;29;20457;-55
2022/07/03 05:30:25;;;;;;;1.40;1.30;;;22.60;47.70;;;;;;4935554;29;20448;-61
2022/07/03 05:32:51;;;;;;;1.20;1.10;;;22.70;47.80;;;;;;4934086;29;20509;-56
2022/07/03 05:35:17;;;;;;;1.20;1.10;;;22.70;47.70;;;;;;4935251;29;20424;-60
2022/07/03 05:37:42;;;;;;;1.30;1.20;;;22.70;47.70;;;;;;4930540;29;20971;-57
2022/07/03 05:40:09;;;;;;;1.00;1.00;;;22.70;47.70;;;;;;4936508;29;20686;-58
2022/07/03 05:42:35;;;;;;;1.37;1.27;;;22.60;47.70;;;;;;4937763;28;20246;-55
2022/07/03 05:45:02;;;;;;;1.40;1.30;;;22.70;47.70;;;;;;4936757;29;20902;-58
2022/07/03 05:47:27;;;;;;;1.10;1.10;;;22.60;47.70;;;;;;4935216;29;20210;-58
2022/07/03 05:49:54;;;;;;;1.20;1.10;;;22.60;47.70;;;;;;4937275;29;20432;-62
2022/07/03 05:52:20;;;;;;;1.30;1.20;;;22.70;47.70;;;;;;4933515;29;20275;-60
2022/07/03 05:54:45;;;;;;;1.03;1.03;;;22.70;47.80;;;;;;4942865;29;20515;-56
2022/07/03 05:57:11;;;;;;;1.40;1.30;;;22.60;47.70;;;;;;4936737;29;20221;-56
2022/07/03 05:59:37;;;;;;;1.37;1.27;;;22.60;47.70;;;;;;4938021;29;20182;-55
2022/07/03 06:02:03;;;;;;;1.40;1.30;;;22.60;47.70;;;;;;4934665;29;20187;-59
2022/07/03 06:04:28;;;;;;;1.30;1.20;;;22.60;47.70;;;;;;4934392;29;20626;-60
2022/07/03 06:06:55;;;;;;;1.27;1.17;;;22.70;47.80;;;;;;4935393;29;20194;-57
2022/07/03 06:09:21;;;;;;;1.30;1.20;;;22.70;47.80;;;;;;4939477;29;20688;-60
2022/07/03 06:11:47;;;;;;;1.40;1.30;;;22.70;47.80;;;;;;4917714;29;20460;-57
2022/07/03 06:14:13;;;;;;;1.10;1.10;;;22.70;47.80;;;;;;4940122;29;20610;-55
2022/07/03 06:16:39;;;;;;;1.20;1.10;;;22.70;47.80;;;;;;4935083;29;20194;-56
2022/07/03 06:19:05;;;;;;;1.10;1.10;;;22.70;47.80;;;;;;4931492;29;20433;-56
2022/07/03 06:21:30;;;;;;;1.30;1.20;;;22.70;47.80;;;;;;4936424;29;20293;-56
2022/07/03 06:23:56;;;;;;;1.23;1.13;;;22.70;47.80;;;;;;4940823;29;20229;-58
2022/07/03 06:26:21;;;;;;;1.47;1.37;;;22.60;48.50;;;;;;4940044;29;20194;-58
2022/07/03 06:28:47;;;;;;;1.23;1.13;;;22.60;47.70;;;;;;4936744;29;20209;-56
2022/07/03 06:31:12;;;;;;;1.30;1.20;;;22.70;47.80;;;;;;4936592;29;20214;-57
2022/07/03 06:33:38;;;;;;;1.60;1.50;;;22.70;47.80;;;;;;4935379;29;20695;-56
2022/07/03 06:36:04;;;;;;;1.50;1.40;;;22.70;47.80;;;;;;4937878;29;20190;-56
2022/07/03 06:38:29;;;;;;;1.40;1.30;;;22.70;47.80;;;;;;4933507;29;20554;-57
2022/07/03 06:40:55;;;;;;;1.60;1.50;;;22.70;48.60;;;;;;4935716;29;20249;-58
2022/07/03 06:43:21;;;;;;;1.37;1.27;;;22.70;47.80;;;;;;4936472;29;20642;-60
2022/07/03 06:45:46;;;;;;;1.30;1.20;;;22.60;48.50;;;;;;4936740;29;20258;-55
2022/07/03 06:48:12;;;;;;;1.40;1.30;;;22.70;48.50;;;;;;4937909;29;20210;-60
2022/07/03 06:50:37;;;;;;;1.40;1.30;;;22.70;47.80;;;;;;4938240;29;20226;-56
2022/07/03 06:53:03;;;;;;;1.40;1.30;;;22.60;47.70;;;;;;4935364;29;20194;-56
2022/07/03 06:55:29;;;;;;;1.50;1.40;;;22.70;47.80;;;;;;4937290;29;20608;-58
2022/07/03 06:57:54;;;;;;;1.40;1.30;;;22.70;47.80;;;;;;4933803;29;20286;-58
2022/07/03 07:00:20;;;;;;;1.40;1.30;;;22.70;47.70;;;;;;4937479;29;20539;-55
2022/07/03 07:02:45;;;;;;;1.40;1.30;;;22.70;47.70;;;;;;4936174;29;20721;-57
2022/07/03 07:05:11;;;;;;;1.63;1.53;;;22.70;47.80;;;;;;4937222;29;20676;-61
2022/07/03 07:07:36;;;;;;;1.50;1.40;;;22.60;47.70;;;;;;4932790;29;20274;-56
2022/07/03 07:10:03;;;;;;;1.30;1.20;;;22.70;47.80;;;;;;4924809;29;20187;-56
2022/07/03 07:12:28;;;;;;;1.50;1.40;;;22.70;47.80;;;;;;4934206;29;20292;-57
2022/07/03 07:14:54;;;;;;;1.60;1.50;;;22.70;47.90;;;;;;4940982;29;20429;-60
2022/07/03 07:17:19;;;;;;;1.53;1.43;;;22.60;47.80;;;;;;4937410;29;20189;-56
2022/07/03 07:19:45;;;;;;;1.60;1.50;;;22.70;47.80;;;;;;4935497;29;20209;-55
2022/07/03 07:22:10;;;;;;;1.60;1.50;;;22.70;47.80;;;;;;4939052;29;20186;-56
2022/07/03 07:24:36;;;;;;;1.50;1.40;;;22.70;47.80;;;;;;4935763;29;20232;-58
2022/07/03 07:27:02;;;;;;;1.40;1.30;;;22.70;47.70;;;;;;4933590;29;20278;-56
2022/07/03 07:29:27;;;;;;;1.53;1.43;;;22.70;47.90;;;;;;4935096;29;20246;-56
2022/07/03 07:31:53;;;;;;;1.40;1.30;;;22.70;48.60;;;;;;4937819;29;20190;-56
2022/07/03 07:34:18;;;;;;;1.60;1.50;;;22.70;47.80;;;;;;4935549;29;20637;-55
2022/07/03 07:36:44;;;;;;;1.40;1.30;;;22.60;47.80;;;;;;4936062;29;20196;-60
2022/07/03 07:39:10;;;;;;;1.40;1.30;;;22.70;47.90;;;;;;4935625;29;20226;-55
2022/07/03 07:41:36;;;;;;;1.60;1.50;;;22.70;47.80;;;;;;4934916;29;20329;-57
2022/07/03 07:44:02;;;;;;;1.50;1.40;;;22.70;47.80;;;;;;4935460;29;20202;-56
2022/07/03 07:46:28;;;;;;;1.33;1.23;;;22.70;47.80;;;;;;4938841;29;20781;-59
2022/07/03 07:48:54;;;;;;;1.30;1.20;;;22.70;47.80;;;;;;4938359;29;20225;-61
2022/07/03 07:51:19;;;;;;;1.50;1.40;;;22.70;47.80;;;;;;4933674;29;20438;-56
2022/07/03 07:53:45;;;;;;;1.70;1.60;;;22.70;47.80;;;;;;4935956;29;20227;-56
2022/07/03 07:56:11;;;;;;;1.40;1.30;;;22.70;47.80;;;;;;4919774;29;20182;-59
2022/07/03 07:58:36;;;;;;;1.60;1.50;;;22.70;47.80;;;;;;4914821;29;20190;-55
2022/07/03 08:06:31;;;;;;;1.70;1.60;;;22.70;47.80;;;;;;4933815;29;20847;-56
2022/07/03 08:08:56;;;;;;;1.63;1.53;;;22.70;47.80;;;;;;4932951;29;20811;-58
2022/07/03 08:11:22;;;;;;;1.60;1.50;;;22.70;47.80;;;;;;4936724;29;20553;-58
2022/07/03 08:13:47;;;;;;;1.43;1.33;;;22.70;47.80;;;;;;4932221;29;20561;-56
2022/07/03 08:16:13;;;;;;;1.40;1.30;;;22.70;47.80;;;;;;4933447;29;20186;-55
2022/07/03 08:18:40;;;;;;;1.80;1.70;;;22.70;47.80;;;;;;4936307;29;20605;-57
2022/07/03 08:21:05;;;;;;;1.50;1.40;;;22.70;47.80;;;;;;4936123;29;21065;-55
2022/07/03 08:23:31;;;;;;;1.70;1.60;;;22.70;47.80;;;;;;4929430;29;20421;-56
2022/07/03 08:25:57;;;;;;;1.60;1.50;;;22.70;47.80;;;;;;4932809;29;20187;-56
2022/07/03 08:28:22;;;;;;;1.60;1.50;;;22.70;47.70;;;;;;4934363;29;20318;-57
2022/07/03 08:30:48;;;;;;;1.70;1.60;;;22.70;47.80;;;;;;4919377;29;20557;-58
2022/07/03 08:33:14;;;;;;;1.77;1.67;;;22.70;47.80;;;;;;4932659;29;20205;-56
2022/07/03 08:35:39;;;;;;;1.70;1.60;;;22.70;47.80;;;;;;4933034;29;20190;-56
2022/07/03 08:38:05;;;;;;;1.50;1.40;;;22.70;47.70;;;;;;4934841;29;20196;-60
2022/07/03 08:40:31;;;;;;;1.47;1.37;;;22.70;47.70;;;;;;4933760;29;20210;-57
2022/07/03 08:43:00;;;;;;;1.70;1.60;;;22.70;47.80;;;;;;4932352;29;20226;-57
2022/07/03 08:45:26;;;;;;;1.80;1.70;;;22.70;47.70;;;;;;4937652;29;20187;-59
2022/07/03 08:47:55;;;;;;;1.87;1.77;;;22.70;47.70;;;;;;4933993;29;20476;-56
2022/07/03 08:50:21;;;;;;;1.80;1.70;;;22.70;47.70;;;;;;4938623;29;20558;-58
2022/07/03 08:52:47;;;;;;;1.80;1.70;;;22.70;47.70;;;;;;4940299;29;20429;-56
2022/07/03 08:55:15;;;;;;;1.80;1.70;;;22.70;47.70;;;;;;4935658;29;20440;-56
2022/07/03 08:57:42;;;;;;;1.63;1.53;;;22.70;47.70;;;;;;4934060;29;20444;-56
2022/07/03 09:00:10;;;;;;;1.70;1.60;;;22.70;47.80;;;;;;4935067;29;20787;-56
2022/07/03 09:02:40;;;;;;;1.53;1.43;;;22.70;47.80;;;;;;4937392;29;20820;-57
2022/07/03 09:05:07;;;;;;;1.50;1.40;;;22.70;47.80;;;;;;4935035;29;20433;-62
2022/07/03 09:07:36;;;;;;;1.60;1.50;;;22.70;47.70;;;;;;4933240;29;20476;-58
2022/07/03 09:10:10;;;;;;;1.70;1.60;;;22.70;47.80;;;;;;4936459;29;20429;-58
2022/07/03 09:12:36;;;;;;;1.80;1.70;;;22.70;47.80;;;;;;4934415;29;20508;-56
2022/07/03 09:15:05;;;;;;;1.77;1.67;;;22.70;47.80;;;;;;4935903;29;20532;-58
2022/07/03 09:17:31;;;;;;;1.70;1.60;;;22.70;47.80;;;;;;4938988;28;20277;-57
2022/07/03 09:20:05;;;;;;;1.77;1.67;;;22.70;47.80;;;;;;4935800;29;20958;-57
2022/07/03 09:22:39;;;;;;;1.77;1.67;;;22.70;47.80;;;;;;4938860;29;20437;-59
2022/07/03 09:25:07;;;;;;;1.70;1.60;;;22.70;47.80;;;;;;4935822;29;20830;-56
2022/07/03 09:27:33;;;;;;;1.73;1.63;;;22.70;47.80;;;;;;4937922;29;20480;-55
2022/07/03 09:30:04;;;;;;;1.83;1.73;;;22.70;47.80;;;;;;4937263;29;20951;-58
2022/07/03 09:32:38;;;;;;;1.50;1.40;;;22.70;47.80;;;;;;4935326;29;20198;-57
2022/07/03 09:35:15;;;;;;;1.90;1.80;;;22.70;47.80;;;;;;4934873;29;20436;-61
2022/07/03 09:38:01;;;;;;;1.73;1.63;;;22.70;47.80;;;;;;4940370;29;20445;-58
2022/07/03 09:40:51;;;;;;;1.60;1.50;;;22.70;47.80;;;;;;4938125;29;20480;-56
2022/07/03 09:43:44;;;;;;;1.80;1.70;;;22.70;47.80;;;;;;4935664;29;20442;-62
2022/07/03 09:46:10;;;;;;;1.60;1.50;;;22.70;47.80;;;;;;4939038;29;20531;-57
2022/07/03 09:48:38;;;;;;;1.83;1.73;;;22.70;47.80;;;;;;4935980;29;20452;-60
2022/07/03 09:51:13;;;;;;;1.83;1.73;;;22.70;47.80;;;;;;4941232;29;20425;-57
2022/07/03 09:53:48;;;;;;;1.60;1.50;;;22.70;47.80;;;;;;4936100;29;20438;-55
2022/07/03 09:56:16;;;;;;;1.90;1.80;;;22.70;47.80;;;;;;4940602;29;20447;-57
2022/07/03 09:58:58;;;;;;;1.73;1.63;;;22.70;47.90;;;;;;4943126;29;20469;-58
2022/07/03 10:01:23;;;;;;;1.40;1.30;;;22.70;48.00;;;;;;4940529;29;20476;-56
2022/07/03 10:03:49;;;;;;;1.80;1.70;;;22.70;47.80;;;;;;4934247;29;20500;-57
2022/07/03 10:06:14;;;;;;;1.67;1.57;;;22.70;47.80;;;;;;4938539;29;20674;-57
2022/07/03 10:08:42;;;;;;;1.80;1.70;;;22.70;47.80;;;;;;4935972;29;20226;-55
2022/07/03 10:11:08;;;;;;;1.80;1.70;;;22.70;47.80;;;;;;4942804;29;20282;-60
2022/07/03 10:13:39;;;;;;;1.70;1.60;;;22.70;47.80;;;;;;4934917;29;20439;-57
2022/07/03 10:16:06;;;;;;;1.70;1.60;;;22.70;47.80;;;;;;4941607;29;20501;-56
2022/07/03 10:18:36;;;;;;;1.90;1.80;;;22.70;47.80;;;;;;4940281;29;20937;-55
2022/07/03 10:21:05;;;;;;;2.10;2.00;;;22.70;47.80;;;;;;4936612;29;20842;-56
2022/07/03 10:23:32;;;;;;;1.80;1.70;;;22.70;47.80;;;;;;4937860;29;20441;-56
2022/07/03 10:25:58;;;;;;;2.10;2.00;;;22.80;47.90;;;;;;4936899;29;20523;-58
2022/07/03 10:28:24;;;;;;;2.00;1.90;;;22.70;47.80;;;;;;4936224;29;20461;-58
2022/07/03 10:30:50;;;;;;;1.70;1.60;;;22.70;47.80;;;;;;4939276;29;21193;-56
2022/07/03 10:33:16;;;;;;;2.00;1.90;;;22.80;47.90;;;;;;4939985;29;20285;-61
2022/07/03 10:35:47;;;;;;;1.87;1.77;;;22.80;47.90;;;;;;4937250;29;20211;-58
2022/07/03 10:38:31;;;;;;;2.00;1.90;;;22.80;48.00;;;;;;4935756;29;20425;-55
2022/07/03 10:47:04;;;;;;;1.80;1.70;;;22.70;47.80;;;;;;4938759;29;20516;-56
2022/07/03 10:49:30;;;;;;;1.90;1.80;;;22.70;47.90;;;;;;4937954;29;20468;-56
2022/07/03 10:51:59;;;;;;;1.63;1.53;;;22.70;48.00;;;;;;4941316;29;20467;-57
2022/07/03 10:54:31;;;;;;;1.87;1.77;;;22.70;47.80;;;;;;4936808;29;20197;-61
2022/07/03 10:57:02;;;;;;;2.10;2.00;;;22.80;48.00;;;;;;4934478;29;20863;-60
2022/07/03 10:59:45;;;;;;;1.83;1.73;;;22.80;48.00;;;;;;4934925;29;20811;-59
2022/07/03 11:02:31;;;;;;;1.57;1.47;;;22.80;47.90;;;;;;4941207;29;20555;-58
2022/07/03 11:04:57;;;;;;;2.10;2.00;;;22.80;47.90;;;;;;4919150;29;20440;-59
2022/07/03 11:07:23;;;;;;;2.20;2.00;;;22.80;47.90;;;;;;4937159;29;20955;-59
2022/07/03 11:10:10;;;;;;;1.80;1.70;;;22.80;47.90;;;;;;4939346;29;20208;-55
2022/07/03 11:12:58;;;;;;;1.90;1.80;;;22.80;47.90;;;;;;4938085;29;20427;-56
2022/07/03 11:15:30;;;;;;;1.80;1.70;;;22.80;47.90;;;;;;4935280;29;20433;-61
2022/07/03 11:18:16;;;;;;;1.80;1.70;;;22.80;47.90;;;;;;4935869;29;20462;-59
2022/07/03 11:20:42;;;;;;;1.77;1.67;;;22.80;47.90;;;;;;4938825;29;20971;-56
2022/07/03 11:23:17;;;;;;;1.80;1.70;;;22.70;47.90;;;;;;4937411;29;21011;-56
2022/07/03 11:25:52;;;;;;;1.73;1.63;;;22.80;47.90;;;;;;4940859;29;20186;-56
2022/07/03 11:28:32;;;;;;;1.63;1.53;;;22.80;47.90;;;;;;4934755;29;20487;-55
2022/07/03 11:31:11;;;;;;;1.70;1.60;;;22.80;47.90;;;;;;4935613;29;20440;-59
2022/07/03 11:33:42;;;;;;;1.67;1.57;;;22.80;48.00;;;;;;4935634;29;20432;-57
2022/07/03 11:36:17;;;;;;;2.00;1.90;;;22.80;48.00;;;;;;4936545;29;20576;-55
2022/07/03 11:38:43;;;;;;;1.60;1.50;;;22.80;48.00;;;;;;4937878;29;20434;-55
2022/07/03 11:41:11;;;;;;;1.77;1.67;;;22.80;48.00;;;;;;4937578;29;20492;-59
2022/07/03 11:43:37;;;;;;;1.67;1.57;;;22.80;48.00;;;;;;4937393;29;20432;-56
2022/07/03 11:46:04;;;;;;;1.73;1.63;;;22.80;48.00;;;;;;4936712;29;20568;-56
2022/07/03 11:48:30;;;;;;;1.50;1.40;;;22.80;48.00;;;;;;4935928;29;20518;-59
2022/07/03 11:51:04;;;;;;;1.80;1.70;;;22.70;47.90;;;;;;4934436;29;20472;-59
2022/07/03 11:53:32;;;;;;;1.57;1.47;;;22.80;47.90;;;;;;4939588;29;20487;-57
2022/07/03 11:56:06;;;;;;;1.63;1.53;;;22.80;47.90;;;;;;4937283;29;20796;-57
2022/07/03 11:58:45;;;;;;;1.50;1.40;;;22.80;47.90;;;;;;4937859;29;20440;-56
2022/07/03 12:01:26;;;;;;;1.90;1.80;;;22.80;47.90;;;;;;4934471;29;20463;-57
2022/07/03 12:04:12;;;;;;;1.80;1.70;;;22.80;47.90;;;;;;4940708;29;20499;-61
2022/07/03 12:07:05;;;;;;;1.73;1.63;;;22.80;47.90;;;;;;4934004;29;20425;-56
2022/07/03 12:09:35;;;;;;;1.70;1.60;;;22.80;48.00;;;;;;4935023;29;20502;-60
2022/07/03 12:12:09;;;;;;;2.20;2.10;;;22.80;47.90;;;;;;4936168;29;20436;-58
2022/07/03 12:14:49;;;;;;;1.80;1.70;;;22.80;48.00;;;;;;4932575;29;20531;-56
2022/07/03 12:17:23;;;;;;;1.60;1.50;;;22.80;47.90;;;;;;4935563;29;20950;-55
2022/07/03 12:19:54;;;;;;;1.87;1.77;;;22.80;47.90;;;;;;4934600;29;20437;-55
2022/07/03 12:22:29;;;;;;;1.70;1.60;;;22.80;47.90;;;;;;4937146;29;20862;-58
2022/07/03 12:24:57;;;;;;;2.00;1.90;;;22.80;47.90;;;;;;4938453;29;21017;-60
2022/07/03 12:27:24;;;;;;;1.80;1.70;;;22.80;48.00;;;;;;4937418;29;20424;-58
2022/07/03 12:29:50;;;;;;;1.77;1.67;;;22.80;47.90;;;;;;4938018;29;20433;-56
2022/07/03 12:32:15;;;;;;;2.00;1.90;;;22.80;47.90;;;;;;4941724;29;20511;-55
2022/07/03 12:34:41;;;;;;;1.80;1.70;;;22.80;47.90;;;;;;4935352;29;20219;-60
2022/07/03 12:37:07;;;;;;;1.70;1.60;;;22.80;47.90;;;;;;4938610;29;20193;-56
2022/07/03 12:39:47;;;;;;;1.70;1.60;;;22.80;47.90;;;;;;4939061;29;20548;-55
2022/07/03 12:42:21;;;;;;;1.60;1.50;;;22.80;47.90;;;;;;4937310;29;20230;-57
2022/07/03 12:44:57;;;;;;;1.60;1.50;;;22.80;48.00;;;;;;4919219;29;20480;-56
2022/07/03 12:47:24;;;;;;;1.50;1.40;;;22.80;47.90;;;;;;4934020;29;20516;-57
2022/07/03 12:49:57;;;;;;;1.80;1.70;;;22.80;47.90;;;;;;4935997;29;20516;-62
2022/07/03 12:52:23;;;;;;;1.80;1.70;;;22.80;47.90;;;;;;4935488;29;20495;-58
2022/07/03 12:54:49;;;;;;;1.63;1.53;;;22.80;48.00;;;;;;4932634;29;20437;-60
2022/07/03 13:00:06;;;;;;;1.70;1.60;;;22.80;48.00;;;;;;4936222;29;20701;-58
2022/07/03 13:02:36;;;;;;;1.60;1.50;;;22.80;48.00;;;;;;4926906;29;20850;-60
2022/07/03 13:05:16;;;;;;;1.80;1.70;;;22.80;48.00;;;;;;4935398;29;20436;-56
2022/07/03 13:07:43;;;;;;;1.70;1.60;;;22.80;48.00;;;;;;4934293;29;20463;-57
2022/07/03 13:10:09;;;;;;;1.70;1.60;;;22.80;48.00;;;;;;4933784;29;20860;-55
2022/07/03 13:12:44;;;;;;;1.60;1.50;;;22.80;48.00;;;;;;4933203;29;20432;-58
2022/07/03 13:15:10;;;;;;;1.70;1.60;;;22.80;48.00;;;;;;4936484;29;20242;-55